createdAt,value
2022-11-16T00:02:13.716Z,4.10
2022-11-16T00:04:42.596Z,4.03
2022-11-16T00:07:11.460Z,3.90
2022-11-16T00:09:39.382Z,3.78
2022-11-16T00:12:09.527Z,3.73
2022-11-16T00:14:38.276Z,3.58
2022-11-16T00:17:06.476Z,3.40
2022-11-16T00:19:35.691Z,3.67
2022-11-16T00:22:03.826Z,3.75
2022-11-16T00:24:31.761Z,4.03
2022-11-16T00:26:59.932Z,3.88
2022-11-16T00:29:28.049Z,4.00
2022-11-16T00:31:56.372Z,3.75
2022-11-16T00:34:24.871Z,3.45
2022-11-16T00:36:54.455Z,3.37
2022-11-16T00:39:22.493Z,3.80
2022-11-16T00:41:50.943Z,3.55
2022-11-16T00:44:18.986Z,4.03
2022-11-16T00:46:47.182Z,3.85
2022-11-16T00:49:15.270Z,3.67
2022-11-16T00:51:43.479Z,3.80
2022-11-16T00:54:13.486Z,4.00
2022-11-16T00:56:41.913Z,3.90
2022-11-16T00:59:09.803Z,3.78
2022-11-16T01:01:38.118Z,4.57
2022-11-16T01:04:07.463Z,4.07
2022-11-16T01:06:37.305Z,3.95
2022-11-16T01:09:05.249Z,4.22
2022-11-16T01:11:52.671Z,3.78
2022-11-16T01:14:20.601Z,4.10
2022-11-16T01:16:50.271Z,4.00
2022-11-16T01:19:18.241Z,3.58
2022-11-16T01:21:46.382Z,4.03
2022-11-16T01:24:14.274Z,4.10
2022-11-16T01:26:43.819Z,3.83
2022-11-16T01:29:11.726Z,4.38
2022-11-16T01:31:44.291Z,4.53
2022-11-16T01:34:12.228Z,4.55
2022-11-16T01:36:40.624Z,3.80
2022-11-16T01:39:08.627Z,4.27
2022-11-16T01:41:49.505Z,4.63
2022-11-16T01:44:56.588Z,4.30
2022-11-16T01:47:24.885Z,4.35
2022-11-16T01:49:57.740Z,4.25
2022-11-16T01:52:32.668Z,4.90
2022-11-16T01:55:01.476Z,4.50
2022-11-16T01:57:42.193Z,4.40
2022-11-16T02:00:12.564Z,4.68
2022-11-16T02:02:51.812Z,4.38
2022-11-16T02:05:46.866Z,4.60
2022-11-16T02:08:41.751Z,4.57
2022-11-16T02:11:27.650Z,4.80
2022-11-16T02:14:05.048Z,4.60
2022-11-16T02:16:38.798Z,4.80
2022-11-16T02:19:20.498Z,4.00
2022-11-16T02:21:53.087Z,3.90
2022-11-16T02:24:36.185Z,4.00
2022-11-16T02:27:32.603Z,4.15
2022-11-16T02:30:02.568Z,4.38
2022-11-16T02:32:33.120Z,4.30
2022-11-16T02:35:04.696Z,4.38
2022-11-16T02:37:35.497Z,4.53
2022-11-16T02:40:07.821Z,4.03
2022-11-16T02:42:39.086Z,4.53
2022-11-16T02:45:11.312Z,4.60
2022-11-16T02:47:42.704Z,5.13
2022-11-16T02:50:13.710Z,5.20
2022-11-16T02:52:41.688Z,4.78
2022-11-16T02:55:12.768Z,4.90
2022-11-16T02:57:49.953Z,4.90
2022-11-16T03:00:22.760Z,5.00
2022-11-16T03:03:00.037Z,4.25
2022-11-16T03:05:35.349Z,4.97
2022-11-16T03:08:13.478Z,4.72
2022-11-16T03:11:00.541Z,5.10
2022-11-16T03:13:31.480Z,4.65
2022-11-16T03:16:02.108Z,4.95
2022-11-16T03:18:30.290Z,4.68
2022-11-16T03:21:07.459Z,4.95
2022-11-16T03:23:35.519Z,5.17
2022-11-16T03:26:07.123Z,5.32
2022-11-16T03:28:38.103Z,4.88
2022-11-16T03:31:12.689Z,5.15
2022-11-16T03:33:44.549Z,4.53
2022-11-16T03:36:17.152Z,4.33
2022-11-16T03:38:46.616Z,4.57
2022-11-16T03:41:15.927Z,4.32
2022-11-16T03:43:45.006Z,5.18
2022-11-16T03:46:16.666Z,4.80
2022-11-16T03:48:46.381Z,4.83
2022-11-16T03:51:22.848Z,4.55
2022-11-16T03:53:50.784Z,4.45
2022-11-16T03:56:19.660Z,4.88
2022-11-16T03:58:48.200Z,4.05
2022-11-16T04:01:17.729Z,4.90
2022-11-16T04:03:47.155Z,4.82
2022-11-16T04:06:35.995Z,4.80
2022-11-16T04:09:21.561Z,5.05
2022-11-16T04:12:08.266Z,4.65
2022-11-16T04:14:55.299Z,5.10
2022-11-16T04:17:46.184Z,5.07
2022-11-16T04:20:33.580Z,5.10
2022-11-16T04:23:27.754Z,4.60
2022-11-16T04:25:56.627Z,5.35
2022-11-16T04:28:27.241Z,5.00
2022-11-16T04:31:17.517Z,6.13
2022-11-16T04:34:20.200Z,5.78
2022-11-16T04:37:09.857Z,6.13
2022-11-16T04:39:38.585Z,5.88
2022-11-16T04:42:15.341Z,5.90
2022-11-16T04:45:02.950Z,5.97
2022-11-16T04:47:37.600Z,6.65
2022-11-16T04:50:08.099Z,6.32
2022-11-16T04:52:36.186Z,7.05
2022-11-16T04:55:06.602Z,6.87
2022-11-16T04:57:34.594Z,6.38
2022-11-16T05:00:03.026Z,6.80
2022-11-16T05:02:31.520Z,6.85
2022-11-16T05:05:00.430Z,7.20
2022-11-16T05:07:31.748Z,7.53
2022-11-16T05:10:08.856Z,7.80
2022-11-16T05:12:37.116Z,7.65
2022-11-16T05:15:08.638Z,7.63
2022-11-16T05:17:36.766Z,7.90
2022-11-16T05:20:28.063Z,8.07
2022-11-16T05:23:02.350Z,7.20
2022-11-16T05:25:36.746Z,8.27
2022-11-16T05:28:08.132Z,8.20
2022-11-16T05:30:40.577Z,8.40
2022-11-16T05:33:08.789Z,8.63
2022-11-16T05:35:41.145Z,7.78
2022-11-16T05:38:10.825Z,8.38
2022-11-16T05:40:43.635Z,8.18
2022-11-16T05:43:11.960Z,8.23
2022-11-16T05:45:47.206Z,8.17
2022-11-16T05:48:16.838Z,7.88
2022-11-16T05:50:45.347Z,7.65
2022-11-16T05:53:21.923Z,8.02
2022-11-16T05:55:50.434Z,7.60
2022-11-16T05:58:19.703Z,8.00
2022-11-16T06:00:50.968Z,8.23
2022-11-16T06:03:20.511Z,8.55
2022-11-16T06:05:57.109Z,8.48
2022-11-16T06:08:28.528Z,8.52
2022-11-16T06:11:02.499Z,8.07
2022-11-16T06:13:30.856Z,8.52
2022-11-16T06:16:01.481Z,8.23
2022-11-16T06:18:31.853Z,8.50
2022-11-16T06:21:00.266Z,8.52
2022-11-16T06:23:29.524Z,8.50
2022-11-16T06:25:58.095Z,8.90
2022-11-16T06:28:28.663Z,8.15
2022-11-16T06:30:57.298Z,8.48
2022-11-16T06:33:30.895Z,8.32
2022-11-16T06:36:02.101Z,8.57
2022-11-16T06:38:31.642Z,9.00
2022-11-16T06:41:01.326Z,8.52
2022-11-16T06:43:30.678Z,8.70
2022-11-16T06:45:59.254Z,8.30
2022-11-16T06:48:27.163Z,8.57
2022-11-16T06:50:55.833Z,8.23
2022-11-16T06:53:28.942Z,8.98
2022-11-16T06:56:04.034Z,8.80
2022-11-16T06:58:34.504Z,9.02
2022-11-16T07:01:07.489Z,8.70
2022-11-16T07:03:36.296Z,8.73
2022-11-16T07:06:10.076Z,10.80
2022-11-16T07:08:39.293Z,10.43
2022-11-16T07:11:10.504Z,9.48
2022-11-16T07:13:39.653Z,13.77
2022-11-16T07:16:11.937Z,11.80
2022-11-16T07:18:45.621Z,9.98
2022-11-16T07:21:16.115Z,11.02
2022-11-16T07:23:45.773Z,13.63
2022-11-16T07:26:21.667Z,9.23
2022-11-16T07:28:55.294Z,8.32
2022-11-16T07:31:25.014Z,8.45
2022-11-16T07:34:12.888Z,8.43
2022-11-16T07:36:47.358Z,7.78
2022-11-16T07:39:15.379Z,8.60
2022-11-16T07:41:46.939Z,8.55
2022-11-16T07:44:25.256Z,9.82
2022-11-16T07:47:06.033Z,10.90
2022-11-16T07:49:35.940Z,9.50
2022-11-16T07:52:11.970Z,8.73
2022-11-16T07:54:59.589Z,8.25
2022-11-16T07:57:30.580Z,8.07
2022-11-16T08:00:02.232Z,8.07
2022-11-16T08:02:41.594Z,8.05
2022-11-16T08:05:15.705Z,8.80
2022-11-16T08:07:43.994Z,9.82
2022-11-16T08:10:12.038Z,8.88
2022-11-16T08:12:42.571Z,8.57
2022-11-16T08:15:14.014Z,8.27
2022-11-16T08:17:42.530Z,9.07
2022-11-16T08:20:13.218Z,8.35
2022-11-16T08:22:42.264Z,7.93
2022-11-16T08:25:10.857Z,7.10
2022-11-16T08:27:43.304Z,8.18
2022-11-16T08:30:12.958Z,7.70
2022-11-16T08:32:42.653Z,14.32
2022-11-16T08:35:12.025Z,10.60
2022-11-16T08:37:40.370Z,6.75
2022-11-16T08:40:12.615Z,6.43
2022-11-16T08:42:43.960Z,6.60
2022-11-16T08:45:13.136Z,6.55
2022-11-16T08:47:42.522Z,6.28
2022-11-16T08:50:10.922Z,5.25
2022-11-16T08:52:39.477Z,5.45
2022-11-16T08:55:08.168Z,5.27
2022-11-16T08:57:36.350Z,5.68
2022-11-16T09:00:12.171Z,5.50
2022-11-16T09:02:40.362Z,5.65
2022-11-16T09:05:11.806Z,5.00
2022-11-16T09:07:40.903Z,4.07
2022-11-16T09:10:09.992Z,4.50
2022-11-16T09:12:38.696Z,4.82
2022-11-16T09:15:07.888Z,3.90
2022-11-16T09:17:37.353Z,4.10
2022-11-16T09:20:06.307Z,3.60
2022-11-16T09:22:34.437Z,3.00
2022-11-16T09:25:02.336Z,3.65
2022-11-16T09:27:30.567Z,4.03
2022-11-16T09:29:58.494Z,3.85
2022-11-16T09:32:26.650Z,3.93
2022-11-16T09:34:55.970Z,3.63
2022-11-16T09:37:24.172Z,4.22
2022-11-16T09:39:52.196Z,3.92
2022-11-16T09:42:32.459Z,3.17
2022-11-16T09:45:04.469Z,3.97
2022-11-16T09:47:42.618Z,3.88
2022-11-16T09:50:20.450Z,3.10
2022-11-16T09:52:50.421Z,2.92
2022-11-16T09:55:24.646Z,2.67
2022-11-16T09:57:53.809Z,2.70
2022-11-16T10:00:23.609Z,2.60
2022-11-16T10:03:00.437Z,2.90
2022-11-16T10:05:33.847Z,2.80
2022-11-16T10:08:05.813Z,2.38
2022-11-16T10:10:37.789Z,2.80
2022-11-16T10:13:13.261Z,2.78
2022-11-16T10:15:50.862Z,2.40
2022-11-16T10:18:31.651Z,2.83
2022-11-16T10:21:12.895Z,2.47
2022-11-16T10:23:50.746Z,2.43
2022-11-16T10:26:28.198Z,2.35
2022-11-16T10:29:18.922Z,2.30
2022-11-16T10:31:58.128Z,1.80
2022-11-16T10:34:27.079Z,2.13
2022-11-16T10:36:59.647Z,1.80
2022-11-16T10:39:28.390Z,1.73
2022-11-16T10:41:57.422Z,1.77
2022-11-16T10:44:33.843Z,2.30
2022-11-16T10:47:04.606Z,1.70
2022-11-16T10:49:39.856Z,1.57
2022-11-16T10:52:09.461Z,1.55
2022-11-16T10:54:41.445Z,1.92
2022-11-16T10:57:27.629Z,1.38
2022-11-16T10:59:57.673Z,1.83
2022-11-16T11:02:32.175Z,1.70
2022-11-16T11:05:06.517Z,1.42
2022-11-16T11:07:39.662Z,1.60
2022-11-16T11:10:29.895Z,1.80
2022-11-16T11:13:07.572Z,1.15
2022-11-16T11:15:35.842Z,1.43
2022-11-16T11:18:18.959Z,1.30
2022-11-16T11:20:50.170Z,0.90
2022-11-16T11:23:21.181Z,1.15
2022-11-16T11:25:52.484Z,1.15
2022-11-16T11:28:23.972Z,1.40
2022-11-16T11:30:54.933Z,1.27
2022-11-16T11:33:23.789Z,0.85
2022-11-16T11:35:58.750Z,1.17
2022-11-16T11:38:28.046Z,1.30
2022-11-16T11:40:59.091Z,1.07
2022-11-16T11:43:27.914Z,1.20
2022-11-16T11:46:01.282Z,1.40
2022-11-16T11:48:35.550Z,1.15
2022-11-16T11:51:10.508Z,1.30
2022-11-16T11:53:45.610Z,1.20
2022-11-16T11:56:15.190Z,0.95
2022-11-16T11:58:43.478Z,1.20
2022-11-16T12:01:32.810Z,1.55
2022-11-16T12:04:26.791Z,1.60
2022-11-16T12:07:00.846Z,1.50
2022-11-16T12:09:36.154Z,1.35
2022-11-16T12:12:16.978Z,1.80
2022-11-16T12:15:01.306Z,1.80
2022-11-16T12:17:37.193Z,2.20
2022-11-16T12:20:17.828Z,1.67
2022-11-16T12:23:15.115Z,1.30
2022-11-16T12:25:48.513Z,1.42
2022-11-16T12:28:24.861Z,1.67
2022-11-16T12:31:03.102Z,1.48
2022-11-16T12:33:40.107Z,1.30
2022-11-16T12:36:15.887Z,1.52
2022-11-16T12:38:52.100Z,1.20
2022-11-16T12:41:42.517Z,1.20
2022-11-16T12:44:12.111Z,1.95
2022-11-16T12:46:48.843Z,2.00
2022-11-16T12:49:29.875Z,2.45
2022-11-16T12:52:07.811Z,1.58
2022-11-16T12:55:19.211Z,1.40
2022-11-16T12:57:44.895Z,1.40
2022-11-16T13:00:14.791Z,1.50
2022-11-16T13:02:56.404Z,1.45
2022-11-16T13:05:26.503Z,1.75
2022-11-16T13:07:57.676Z,1.85
2022-11-16T13:10:28.354Z,2.08
2022-11-16T13:13:22.279Z,1.93
2022-11-16T13:15:50.272Z,16.65
2022-11-16T13:18:20.673Z,15.35
2022-11-16T13:20:54.044Z,6.50
2022-11-16T13:23:26.726Z,1.50
2022-11-16T13:26:02.045Z,1.30
2022-11-16T13:28:36.513Z,1.50
2022-11-16T13:31:09.563Z,1.38
2022-11-16T13:33:49.327Z,1.52
2022-11-16T13:36:45.164Z,3.38
2022-11-16T13:39:21.487Z,2.00
2022-11-16T13:41:51.647Z,1.60
2022-11-16T13:44:31.098Z,1.60
2022-11-16T13:47:04.245Z,1.30
2022-11-16T13:49:35.140Z,1.30
2022-11-16T13:52:22.150Z,1.27
2022-11-16T13:54:53.488Z,1.55
2022-11-16T13:57:25.474Z,1.17
2022-11-16T14:00:08.905Z,1.42
2022-11-16T14:02:38.209Z,0.90
2022-11-16T14:05:15.329Z,0.90
2022-11-16T14:07:46.942Z,0.73
2022-11-16T14:11:01.473Z,0.60
2022-11-16T14:13:39.667Z,0.80
2022-11-16T14:16:55.820Z,0.60
2022-11-16T14:19:54.904Z,0.60
2022-11-16T14:22:39.645Z,0.80
2022-11-16T14:25:15.505Z,0.60
2022-11-16T14:27:48.910Z,0.88
2022-11-16T14:30:20.638Z,0.73
2022-11-16T14:32:50.404Z,1.00
2022-11-16T14:35:28.711Z,0.68
2022-11-16T14:37:58.561Z,0.95
2022-11-16T14:40:26.949Z,0.65
2022-11-16T14:45:48.136Z,1.43
2022-11-16T14:48:18.675Z,1.10
2022-11-16T14:51:01.502Z,1.27
2022-11-16T14:53:30.330Z,1.10
2022-11-16T14:56:07.443Z,1.10
2022-11-16T14:58:35.823Z,1.10
2022-11-16T15:01:06.001Z,1.45
2022-11-16T15:03:36.468Z,1.20
2022-11-16T15:06:07.789Z,1.35
2022-11-16T15:08:38.498Z,1.10
2022-11-16T15:11:08.858Z,1.20
2022-11-16T15:13:37.028Z,1.38
2022-11-16T15:16:09.810Z,0.98
2022-11-16T15:18:37.745Z,0.90
2022-11-16T15:21:07.381Z,1.58
2022-11-16T15:24:02.065Z,1.50
2022-11-16T15:26:35.611Z,1.60
2022-11-16T15:29:03.669Z,1.77
2022-11-16T15:31:31.956Z,1.88
2022-11-16T15:34:00.194Z,1.77
2022-11-16T15:36:33.939Z,1.30
2022-11-16T15:39:02.294Z,1.35
2022-11-16T15:41:30.595Z,2.30
2022-11-16T15:44:16.359Z,3.08
2022-11-16T15:46:46.904Z,2.63
2022-11-16T15:49:25.783Z,1.53
2022-11-16T15:51:55.447Z,1.77
2022-11-16T15:54:27.133Z,2.45
2022-11-16T15:56:57.102Z,2.10
2022-11-16T15:59:28.568Z,1.90
2022-11-16T16:01:57.232Z,2.20
2022-11-16T16:04:25.984Z,1.73
2022-11-16T16:06:56.796Z,2.03
2022-11-16T16:09:27.519Z,2.17
2022-11-16T16:11:57.123Z,2.30
2022-11-16T16:14:28.873Z,2.80
2022-11-16T16:16:59.120Z,2.78
2022-11-16T16:19:33.739Z,2.45
2022-11-16T16:22:04.012Z,2.35
2022-11-16T16:24:41.106Z,2.08
2022-11-16T16:27:14.818Z,2.27
2022-11-16T16:29:43.218Z,2.58
2022-11-16T16:32:19.757Z,3.28
2022-11-16T16:34:47.681Z,3.13
2022-11-16T16:37:17.524Z,2.40
2022-11-16T16:39:45.756Z,2.03
2022-11-16T16:42:15.485Z,2.40
2022-11-16T16:44:44.787Z,2.53
2022-11-16T16:47:13.386Z,2.38
2022-11-16T16:49:41.547Z,2.35
2022-11-16T16:52:12.427Z,2.10
2022-11-16T16:54:42.263Z,2.97
2022-11-16T16:57:14.108Z,3.70
2022-11-16T16:59:42.408Z,3.40
2022-11-16T17:02:11.154Z,2.78
2022-11-16T17:04:39.231Z,4.20
2022-11-16T17:07:07.545Z,5.70
2022-11-16T17:09:35.427Z,5.05
2022-11-16T17:12:05.299Z,4.90
2022-11-16T17:14:33.231Z,3.28
2022-11-16T17:17:01.443Z,2.60
2022-11-16T17:19:29.893Z,2.30
2022-11-16T17:21:58.169Z,2.63
2022-11-16T17:24:26.055Z,2.67
2022-11-16T17:26:54.281Z,2.25
2022-11-16T17:29:23.672Z,3.03
2022-11-16T17:31:51.929Z,2.60
2022-11-16T17:34:19.921Z,2.80
2022-11-16T17:36:48.225Z,2.70
2022-11-16T17:39:16.683Z,2.70
2022-11-16T17:41:44.853Z,2.87
2022-11-16T17:44:17.188Z,2.95
2022-11-16T17:46:49.971Z,2.90
2022-11-16T17:49:17.971Z,2.42
2022-11-16T17:51:46.312Z,2.50
2022-11-16T17:54:14.440Z,2.20
2022-11-16T17:56:42.633Z,2.30
2022-11-16T17:59:10.655Z,1.92
2022-11-16T18:01:39.355Z,1.90
2022-11-16T18:04:08.834Z,2.10
2022-11-16T18:06:37.577Z,2.60
2022-11-16T18:09:05.659Z,2.05
2022-11-16T18:11:33.951Z,2.17
2022-11-16T18:14:05.384Z,2.05
2022-11-16T18:16:34.558Z,2.58
2022-11-16T18:19:04.082Z,2.53
2022-11-16T18:21:39.490Z,2.50
2022-11-16T18:24:08.166Z,2.55
2022-11-16T18:26:36.794Z,2.50
2022-11-16T18:29:05.215Z,2.08
2022-11-16T18:31:33.944Z,2.30
2022-11-16T18:34:02.719Z,1.85
2022-11-16T18:36:30.897Z,2.83
2022-11-16T18:39:00.228Z,1.83
2022-11-16T18:41:29.467Z,2.20
2022-11-16T18:43:58.501Z,2.17
2022-11-16T18:46:28.137Z,2.30
2022-11-16T18:48:56.504Z,2.38
2022-11-16T18:51:26.028Z,2.00
2022-11-16T18:53:54.512Z,3.60
2022-11-16T18:56:25.259Z,2.93
2022-11-16T18:58:53.769Z,2.50
2022-11-16T19:01:23.361Z,2.78
2022-11-16T19:03:51.845Z,2.55
2022-11-16T19:06:20.353Z,2.60
2022-11-16T19:08:55.355Z,2.47
2022-11-16T19:11:25.989Z,2.30
2022-11-16T19:13:55.330Z,2.33
2022-11-16T19:16:24.933Z,3.05
2022-11-16T19:18:53.119Z,3.10
2022-11-16T19:21:22.754Z,3.37
2022-11-16T19:23:52.812Z,3.40
2022-11-16T19:26:27.815Z,2.85
2022-11-16T19:28:56.023Z,2.80
2022-11-16T19:31:26.135Z,2.80
2022-11-16T19:33:55.233Z,2.30
2022-11-16T19:36:25.490Z,2.90
2022-11-16T19:38:54.963Z,2.40
2022-11-16T19:41:25.923Z,3.33
2022-11-16T19:43:59.512Z,4.68
2022-11-16T19:46:29.399Z,3.13
2022-11-16T19:48:58.184Z,3.00
2022-11-16T19:51:28.164Z,2.45
2022-11-16T19:53:56.503Z,2.33
2022-11-16T19:56:26.583Z,2.10
2022-11-16T19:58:55.002Z,2.77
2022-11-16T20:01:27.936Z,2.55
2022-11-16T20:03:57.505Z,2.78
2022-11-16T20:06:29.595Z,2.30
2022-11-16T20:09:00.724Z,2.33
2022-11-16T20:11:33.564Z,2.00
2022-11-16T20:14:02.855Z,2.42
2022-11-16T20:16:38.377Z,1.90
2022-11-16T20:19:07.496Z,2.10
2022-11-16T20:21:37.040Z,2.10
2022-11-16T20:24:07.260Z,2.17
2022-11-16T20:29:05.952Z,2.10
2022-11-16T20:31:34.638Z,1.73
2022-11-16T20:34:04.268Z,2.38
2022-11-16T20:36:33.955Z,2.53
2022-11-16T20:39:02.336Z,3.05
2022-11-16T20:41:32.022Z,2.35
2022-11-16T20:44:02.419Z,2.50
2022-11-16T20:46:31.824Z,2.72
2022-11-16T20:49:01.627Z,3.23
2022-11-16T20:51:30.416Z,2.50
2022-11-16T20:53:58.887Z,3.15
2022-11-16T20:56:30.042Z,2.85
2022-11-16T20:58:58.245Z,2.92
2022-11-16T21:01:31.446Z,2.30
2022-11-16T21:04:01.196Z,3.30
2022-11-16T21:06:29.917Z,2.70
2022-11-16T21:08:57.884Z,2.65
2022-11-16T21:11:28.785Z,2.72
2022-11-16T21:14:14.775Z,2.47
2022-11-16T21:16:44.704Z,2.80
2022-11-16T21:19:12.889Z,2.17
2022-11-16T21:21:41.431Z,2.33
2022-11-16T21:24:09.726Z,2.55
2022-11-16T21:26:38.090Z,2.43
2022-11-16T21:29:06.559Z,2.13
2022-11-16T21:31:36.663Z,2.30
2022-11-16T21:34:07.398Z,2.55
2022-11-16T21:36:36.029Z,3.20
2022-11-16T21:39:03.971Z,2.33
2022-11-16T21:41:32.542Z,2.25
2022-11-16T21:44:00.484Z,1.70
2022-11-16T21:46:28.807Z,1.92
2022-11-16T21:48:57.191Z,2.33
2022-11-16T21:51:27.808Z,2.00
2022-11-16T21:53:56.049Z,7.72
2022-11-16T21:56:25.432Z,2.55
2022-11-16T21:58:54.136Z,2.05
2022-11-16T22:01:23.367Z,1.90
2022-11-16T22:04:11.478Z,2.10
2022-11-16T22:06:58.530Z,2.30
2022-11-16T22:09:26.543Z,2.28
2022-11-16T22:11:54.768Z,2.65
2022-11-16T22:14:22.655Z,2.22
2022-11-16T22:16:50.610Z,2.23
2022-11-16T22:19:18.765Z,2.15
2022-11-16T22:21:48.009Z,2.40
2022-11-16T22:24:16.343Z,1.90
2022-11-16T22:26:44.240Z,1.80
2022-11-16T22:29:12.347Z,1.87
2022-11-16T22:31:40.413Z,1.60
2022-11-16T22:34:08.516Z,2.10
2022-11-16T22:36:36.433Z,1.50
2022-11-16T22:39:05.994Z,1.90
2022-11-16T22:41:33.875Z,1.70
2022-11-16T22:44:02.014Z,1.88
2022-11-16T22:46:29.904Z,1.65
2022-11-16T22:48:58.037Z,1.95
2022-11-16T22:51:27.010Z,1.50
2022-11-16T22:53:55.536Z,1.60
2022-11-16T22:56:25.024Z,1.60
2022-11-16T22:58:53.642Z,1.80
2022-11-16T23:01:22.038Z,1.90
2022-11-16T23:03:50.572Z,2.15
2022-11-16T23:06:18.556Z,2.20
2022-11-16T23:08:46.677Z,1.83
2022-11-16T23:11:34.039Z,1.90
2022-11-16T23:14:21.534Z,1.95
2022-11-16T23:16:50.486Z,1.55
2022-11-16T23:19:37.491Z,1.60
2022-11-16T23:22:23.257Z,1.50
2022-11-16T23:25:08.860Z,1.80
2022-11-16T23:27:40.932Z,1.67
2022-11-16T23:30:13.197Z,1.55
2022-11-16T23:32:42.229Z,1.40
2022-11-16T23:35:12.073Z,2.08
2022-11-16T23:37:53.976Z,1.70
2022-11-16T23:40:23.934Z,1.95
2022-11-16T23:43:10.115Z,2.40
2022-11-16T23:45:40.062Z,1.83
2022-11-16T23:48:08.982Z,2.25
2022-11-16T23:50:37.650Z,2.20
2022-11-16T23:53:06.698Z,2.00
2022-11-16T23:55:35.506Z,2.35
2022-11-16T23:58:03.458Z,1.77
